Latest Weather Observations for Jandakot

IDW60901

Issued at 10:21 am WST Saturday 3 December 2016 (issued every 10 minutes, with the page automatically refreshed every 10 minutes)

About weather observations | Map of Perth area stations | Latest observations for Perth area | Other Formats
Station Details ID: 009172 Name: JANDAKOT AERO Lat: -32.10 Lon: 115.88 Height: 30.0 m
Data from the previous 72 hours. | See also: Recent months at Jandakot
Date/Time
WST
Temp
°C
App
Temp
°C
Dew
Point
°C
Rel
Hum
%
Delta-T
°C
Wind Press
QNH
hPa
Press
MSL
hPa
Rain since
9am
mm
Dir  Spd
km/h
Gust
km/h
Spd
kts
Gust
kts
03/10:00am 19.9 15.8 10.1 53 5.3 W 22 32 12 17 1009.8 1009.7 0.0
03/09:30am 19.8 15.6 9.7 52 5.4 WSW 22 32 12 17 1009.6 1009.5 0.0
03/09:00am 20.3 16.3 10.3 52 5.4 SW 22 33 12 18 1009.6 1009.5 0.0
03/08:30am 19.1 17.0 9.7 54 5.0 SW 11 22 6 12 1009.4 1009.3 0.0
03/08:00am 18.2 16.8 11.0 63 3.9 SW 9 17 5 9 1009.6 1009.5 0.0
03/07:30am 18.1 15.9 10.9 63 3.9 SSW 13 17 7 9 1009.4 1009.3 0.0
03/07:00am 16.7 16.0 11.3 70 2.9 S 6 9 3 5 1009.0 1008.9 0.0
03/06:30am 15.2 14.2 11.1 76 2.2 SSE 7 9 4 5 1008.9 1008.8 0.0
03/06:00am 13.9 13.2 11.5 85 1.3 SW 6 7 3 4 1008.6 1008.5 0.0
03/05:30am 12.6 11.6 11.1 91 0.8 WSW 7 9 4 5 1008.4 1008.3 0.0
03/05:00am 12.0 11.5 10.7 92 0.7 SE 4 6 2 3 1008.1 1008.0 0.0
03/04:30am 11.9 10.7 10.4 90 0.8 ESE 7 9 4 5 1008.0 1007.9 0.0
03/04:00am 11.9 10.4 10.6 92 0.7 SE 9 11 5 6 1007.8 1007.7 0.0
03/03:30am 12.7 11.3 11.0 89 0.9 S 9 11 5 6 1007.5 1007.4 0.0
03/03:00am 13.7 12.6 11.8 88 1.0 SW 9 9 5 5 1007.6 1007.5 0.0
03/02:30am 14.4 13.8 12.4 88 1.1 S 7 9 4 5 1007.8 1007.7 0.0
03/02:00am 14.2 13.6 12.4 89 1.0 S 7 9 4 5 1007.8 1007.7 0.0
03/01:30am 15.4 14.9 12.5 83 1.6 SSE 7 9 4 5 1007.9 1007.8 0.0
03/01:00am 16.7 15.4 12.4 76 2.4 SSW 11 17 6 9 1008.0 1007.9 0.0
03/12:30am 17.3 15.8 13.0 76 2.4 SSW 13 19 7 10 1008.4 1008.3 0.0
03/12:00am 17.3 16.0 13.6 79 2.1 SW 13 19 7 10 1008.6 1008.5 0.0
 
Date/Time
WST
Temp
°C
App
Temp
°C
Dew
Point
°C
Rel
Hum
%
Delta-T
°C
Wind Press
QNH
hPa
Press
MSL
hPa
Rain since
9am
mm
Dir  Spd
km/h
Gust
km/h
Spd
kts
Gust
kts
02/11:30pm 17.2 16.2 13.5 79 2.1 SW 11 17 6 9 1008.8 1008.7 0.0
02/11:00pm 16.8 15.5 13.6 81 1.8 SW 13 17 7 9 1009.2 1009.1 0.0
02/10:30pm 17.0 16.9 13.3 79 2.1 SSW 6 7 3 4 1009.2 1009.1 0.0
02/10:00pm 17.5 16.0 13.1 75 2.5 SW 13 17 7 9 1009.5 1009.4 0.0
02/09:30pm 17.1 15.8 12.6 75 2.5 SW 11 15 6 8 1009.4 1009.3 0.0
02/09:00pm 17.3 15.9 12.2 72 2.8 SW 11 15 6 8 1009.4 1009.3 0.0
02/08:30pm 17.7 16.3 12.3 70 3.0 SSW 11 15 6 8 1009.5 1009.4 0.0
02/08:00pm 18.0 15.1 12.4 70 3.1 SW 19 22 10 12 1009.7 1009.6 0.0
02/07:30pm 18.3 15.4 12.2 67 3.4 SW 19 26 10 14 1009.8 1009.7 0.0
02/07:00pm 19.1 15.8 11.7 62 4.1 SW 20 28 11 15 1009.6 1009.5 0.0
02/06:30pm 20.4 16.7 11.4 56 5.0 SW 22 28 12 15 1009.6 1009.5 0.0
02/06:00pm 21.3 17.6 10.3 49 6.0 SSW 20 26 11 14 1009.4 1009.3 0.0
02/05:30pm 21.7 17.5 11.0 50 5.9 SW 24 30 13 16 1009.3 1009.2 0.0
02/05:00pm 22.5 18.3 11.0 48 6.4 SW 24 32 13 17 1009.3 1009.2 0.0
02/04:30pm 23.1 18.9 11.1 46 6.7 WSW 24 32 13 17 1009.1 1009.0 0.0
02/04:00pm 22.9 18.1 10.4 45 6.9 WSW 26 30 14 16 1009.4 1009.3 0.0
02/03:30pm 24.0 19.5 10.2 41 7.6 WSW 24 33 13 18 1009.5 1009.4 0.0
02/03:00pm 24.4 19.8 9.6 39 8.1 WSW 24 30 13 16 1009.6 1009.5 0.0
02/02:30pm 25.5 21.1 9.0 35 9.0 WSW 22 30 12 16 1009.8 1009.7 0.0
02/02:00pm 24.6 19.2 9.4 38 8.3 WSW 28 33 15 18 1010.2 1010.1 0.0
02/01:30pm 26.2 20.6 8.7 33 9.5 WSW 28 35 15 19 1010.5 1010.4 0.0
02/01:00pm 25.5 20.2 9.7 37 8.7 WSW 28 33 15 18 1010.6 1010.5 0.0
02/12:30pm 26.5 23.1 9.2 33 9.5 WSW 17 24 9 13 1010.3 1010.2 0.0
02/12:00pm 25.6 22.6 9.1 35 9.0 W 15 20 8 11 1010.8 1010.7 0.0
02/11:30am 25.8 23.7 8.1 32 9.5 NNW 9 13 5 7 1011.2 1011.1 0.0
02/11:00am 24.8 23.1 8.4 35 8.8 SSE 7 13 4 7 1011.8 1011.7 0.0
02/10:30am 23.3 21.6 8.2 38 8.0 E 7 15 4 8 1012.4 1012.3 0.0
02/10:00am 22.6 20.6 8.7 41 7.4 ENE 9 17 5 9 1012.7 1012.6 0.0
02/09:30am 21.8 19.7 8.1 41 7.2 SSE 9 26 5 14 1013.1 1013.0 0.0
02/09:00am 20.6 18.3 7.6 43 6.7 SSE 9 15 5 8 1013.4 1013.3 0.0
02/08:30am 19.6 16.7 8.0 47 6.0 NE 13 20 7 11 1013.4 1013.3 0.0
02/08:00am 18.6 15.2 7.6 48 5.6 E 15 19 8 10 1013.4 1013.3 0.0
02/07:30am 18.1 15.5 7.7 50 5.3 E 11 17 6 9 1013.6 1013.5 0.0
02/07:00am 16.6 13.1 7.4 54 4.6 ESE 15 20 8 11 1013.8 1013.7 0.0
02/06:30am 15.8 12.3 7.1 56 4.3 E 15 20 8 11 1013.7 1013.6 0.0
02/06:00am 14.6 10.7 7.0 60 3.7 ESE 17 20 9 11 1013.5 1013.4 0.0
02/05:30am 13.7 9.8 6.9 63 3.3 E 17 24 9 13 1013.3 1013.2 0.0
02/05:00am 13.7 9.3 6.7 62 3.4 E 19 28 10 15 1013.6 1013.5 0.0
02/04:30am 13.9 9.3 6.7 62 3.5 E 20 37 11 20 1013.4 1013.3 0.0
02/04:00am 14.2 9.6 6.5 60 3.7 ESE 20 28 11 15 1013.1 1013.0 0.0
02/03:30am 14.7 9.7 6.4 57 4.0 ESE 22 32 12 17 1012.8 1012.7 0.0
02/03:00am 14.7 10.1 6.4 57 4.0 ESE 20 26 11 14 1013.1 1013.0 0.0
02/02:30am 14.9 10.3 6.4 57 4.1 ESE 20 28 11 15 1012.8 1012.7 0.0
02/02:00am 12.4 9.2 7.0 69 2.6 ESE 13 17 7 9 1012.7 1012.6 0.0
02/01:30am 12.9 9.9 7.6 70 2.6 SSE 13 15 7 8 1012.9 1012.8 0.0
02/01:00am 13.0 10.0 7.7 70 2.6 S 13 15 7 8 1013.0 1012.9 0.0
02/12:30am 13.6 10.6 7.7 67 2.9 S 13 15 7 8 1013.3 1013.2 0.0
02/12:00am 14.6 11.2 7.5 62 3.5 S 15 20 8 11 1013.4 1013.3 0.0
 
Date/Time
WST
Temp
°C
App
Temp
°C
Dew
Point
°C
Rel
Hum
%
Delta-T
°C
Wind Press
QNH
hPa
Press
MSL
hPa
Rain since
9am
mm
Dir  Spd
km/h
Gust
km/h
Spd
kts
Gust
kts
01/11:30pm 15.3 11.0 7.2 58 4.0 S 19 24 10 13 1013.6 1013.5 0.0
01/11:00pm 16.1 12.3 7.7 57 4.2 S 17 20 9 11 1013.9 1013.8 0.0
01/10:30pm 16.9 12.7 8.3 57 4.4 S 20 28 11 15 1014.2 1014.1 0.0
01/10:00pm 17.1 14.9 10.8 66 3.4 SSW 13 15 7 8 1014.2 1014.1 0.0
01/09:30pm 17.5 15.4 11.2 66 3.4 SSW 13 17 7 9 1014.4 1014.3 0.0
01/09:00pm 17.5 15.9 11.6 68 3.2 SW 11 15 6 8 1014.5 1014.4 0.0
01/08:30pm 17.7 15.4 11.7 68 3.3 SW 15 19 8 10 1014.4 1014.3 0.0
01/08:00pm 18.0 15.3 11.8 67 3.4 SW 17 22 9 12 1014.4 1014.3 0.0
01/07:30pm 18.3 15.2 11.5 64 3.7 SW 19 24 10 13 1014.2 1014.1 0.0
01/07:00pm 18.8 15.4 11.3 61 4.1 SW 20 26 11 14 1014.1 1014.0 0.0
01/06:30pm 19.6 15.4 11.2 58 4.6 SW 24 33 13 18 1013.9 1013.8 0.0
01/06:00pm 20.2 15.4 10.4 53 5.3 SW 26 33 14 18 1013.6 1013.5 0.0
01/05:30pm 21.2 15.7 9.2 46 6.4 SW 28 35 15 19 1013.6 1013.5 0.0
01/05:00pm 21.5 16.0 9.1 45 6.6 SW 28 35 15 19 1013.6 1013.5 0.0
01/04:30pm 21.9 16.8 9.2 44 6.8 SW 26 35 14 19 1013.8 1013.7 0.0
01/04:00pm 22.3 16.5 8.0 40 7.5 SW 28 35 15 19 1013.7 1013.6 0.0
01/03:30pm 22.2 15.9 7.6 39 7.6 WSW 30 37 16 20 1014.0 1013.9 0.0
01/03:00pm 22.3 16.1 7.7 39 7.6 WSW 30 37 16 20 1014.1 1014.0 0.0
01/02:30pm 22.5 16.0 8.0 39 7.6 WSW 32 43 17 23 1014.3 1014.2 0.0
01/02:00pm 22.3 15.3 8.3 40 7.4 SW 35 43 19 23 1014.5 1014.4 0.0
01/01:30pm 22.8 16.2 8.5 40 7.6 WSW 33 41 18 22 1014.7 1014.6 0.0
01/01:00pm 22.5 16.7 9.3 43 7.1 SW 30 41 16 22 1014.9 1014.8 0.0
01/12:30pm 22.6 17.6 9.4 43 7.1 SW 26 33 14 18 1015.2 1015.1 0.0
01/12:00pm 22.1 18.2 9.5 44 6.8 SW 20 32 11 17 1015.5 1015.4 0.0
01/11:30am 22.0 19.5 9.8 45 6.6 SSE 13 26 7 14 1015.9 1015.8 0.0
01/11:00am 21.7 19.4 9.1 44 6.7 S 11 22 6 12 1016.1 1016.0 0.0
01/10:30am 21.3 18.7 9.5 47 6.3 S 13 20 7 11 1016.3 1016.2 0.0
01/10:00am 21.0 18.4 9.4 47 6.2 S 13 17 7 9 1016.4 1016.3 0.0
01/09:30am 20.2 18.5 10.0 52 5.5 S 9 19 5 10 1016.6 1016.5 0.0
01/09:00am 19.6 17.3 10.3 55 5.0 SSE 13 20 7 11 1016.8 1016.7 0.0
01/08:30am 19.9 17.8 11.1 57 4.8 SE 13 22 7 12 1016.7 1016.6 0.0
01/08:00am 19.2 16.9 11.6 61 4.2 SSE 15 20 8 11 1016.7 1016.6 0.0
01/07:30am 17.9 16.2 11.3 65 3.6 S 11 17 6 9 1016.6 1016.5 0.0
01/07:00am 16.9 15.5 10.9 67 3.2 SSW 9 13 5 7 1016.4 1016.3 0.0
01/06:30am 15.6 16.0 11.1 74 2.4 CALM 0 0 0 0 1016.0 1015.9 0.0
01/06:00am 13.1 13.1 11.0 87 1.1 E 2 6 1 3 1015.8 1015.7 0.0
01/05:30am 11.2 9.7 9.2 87 1.0 SE 7 9 4 5 1015.7 1015.6 0.0
01/05:00am 10.9 9.3 8.9 87 1.0 S 7 9 4 5 1015.4 1015.3 0.0
01/04:30am 11.3 10.8 9.5 89 0.9 ESE 2 6 1 3 1015.2 1015.1 0.0
01/04:00am 11.9 11.9 9.9 87 1.0 CALM 0 0 0 0 1015.0 1014.9 0.0
01/03:30am 12.5 11.5 10.2 86 1.2 ESE 6 7 3 4 1014.8 1014.7 0.0
01/03:00am 12.2 10.9 9.8 85 1.2 E 7 9 4 5 1014.9 1014.8 0.0
01/02:30am 14.3 12.3 10.3 77 2.1 S 11 13 6 7 1015.0 1014.9 0.0
01/02:00am 14.8 12.8 10.2 74 2.4 S 11 15 6 8 1015.0 1014.9 0.0
01/01:30am 15.5 12.8 10.2 70 2.8 S 15 22 8 12 1015.0 1014.9 0.0
01/01:00am 15.8 13.0 10.1 69 3.0 S 15 19 8 10 1015.1 1015.0 0.0
01/12:30am 16.4 13.2 9.9 65 3.4 S 17 20 9 11 1015.3 1015.2 0.0
01/12:00am 16.7 13.2 10.3 66 3.4 S 19 24 10 13 1015.3 1015.2 0.0
 
Date/Time
WST
Temp
°C
App
Temp
°C
Dew
Point
°C
Rel
Hum
%
Delta-T
°C
Wind Press
QNH
hPa
Press
MSL
hPa
Rain since
9am
mm
Dir  Spd
km/h
Gust
km/h
Spd
kts
Gust
kts
30/11:30pm 17.2 13.8 11.1 67 3.3 S 20 28 11 15 1015.4 1015.3 0.0
30/11:00pm 17.3 14.7 12.0 71 2.9 S 17 26 9 14 1015.5 1015.4 0.0
30/10:30pm 17.4 14.8 11.9 70 3.0 SSW 17 24 9 13 1015.4 1015.3 0.0
30/10:00pm 17.6 15.0 12.0 69 3.1 SSW 17 24 9 13 1015.5 1015.4 0.0
30/09:30pm 17.8 14.9 12.2 70 3.1 SSW 19 26 10 14 1015.5 1015.4 0.0
30/09:00pm 18.0 14.4 11.8 67 3.4 SSW 22 30 12 16 1015.4 1015.3 0.0
30/08:30pm 18.1 14.1 11.9 67 3.4 SSW 24 32 13 17 1015.4 1015.3 0.0
30/08:00pm 18.2 14.3 12.2 68 3.3 SSW 24 32 13 17 1015.1 1015.0 0.0
30/07:30pm 18.3 14.0 12.0 66 3.5 SW 26 37 14 20 1014.8 1014.7 0.0
30/07:00pm 18.7 14.4 12.2 66 3.6 SW 26 35 14 19 1014.5 1014.4 0.0
30/06:30pm 19.4 14.2 11.6 60 4.3 SSW 30 41 16 22 1014.3 1014.2 0.0
30/06:00pm 20.0 14.2 11.5 58 4.7 SW 33 43 18 23 1013.9 1013.8 0.0
30/05:30pm 21.1 15.5 10.2 49 5.9 SSW 30 39 16 21 1013.3 1013.2 0.0
30/05:00pm 22.1 16.1 8.5 41 7.2 SW 30 37 16 20 1013.0 1012.9 0.0
30/04:30pm 22.6 17.0 8.7 41 7.4 SW 28 35 15 19 1013.0 1012.9 0.0
30/04:00pm 22.6 17.3 9.7 44 7.0 SW 28 37 15 20 1013.1 1013.0 0.0
30/03:30pm 22.9 16.7 10.1 44 7.0 SW 33 43 18 23 1013.3 1013.2 0.0
30/03:00pm 23.2 17.6 10.3 44 7.1 SSW 30 39 16 21 1013.2 1013.1 0.0
30/02:30pm 23.9 17.1 10.8 43 7.3 SW 37 46 20 25 1013.4 1013.3 0.0
30/02:00pm 23.9 18.0 11.0 44 7.2 SW 33 43 18 23 1013.3 1013.2 0.0
30/01:30pm 24.8 18.6 9.9 39 8.2 WSW 33 41 18 22 1013.3 1013.2 0.0
30/01:00pm 24.4 18.3 9.6 39 8.1 WSW 32 39 17 21 1013.1 1013.0 0.0
30/12:30pm 25.1 19.8 8.6 35 8.9 SW 26 37 14 20 1013.3 1013.2 0.0
30/12:00pm 25.6 19.7 9.1 35 9.0 WSW 30 39 16 21 1013.5 1013.4 0.0
30/11:30am 25.5 20.5 8.1 33 9.3 SW 24 32 13 17 1013.8 1013.7 0.0
30/11:00am 25.0 21.0 9.2 36 8.6 SW 20 28 11 15 1014.0 1013.9 0.0
30/10:30am 25.0 21.2 9.2 36 8.6 SW 19 26 10 14 1014.1 1014.0 0.0

Latest Capital City Observations: Canberra | Sydney | Melbourne | Brisbane | Adelaide | Perth | Hobart | Darwin

Other Formats:

Comma delimited format used in spreadsheet applications
http://www.bom.gov.au/fwo/IDW60901/IDW60901.94609.axf

JavaScript Object Notation format (JSON) in row-major order
http://www.bom.gov.au/fwo/IDW60901/IDW60901.94609.json